sensor_id;sensor_type;location;lat;lon;timestamp;P1;durP1;ratioP1;P2;durP2;ratioP2
79017;SDS011;68421;44.714;37.756;2023-03-20T00:01:56;9.02;;;4.30;;
79017;SDS011;68421;44.714;37.756;2023-03-20T00:02:58;10.65;;;4.50;;
79017;SDS011;68421;44.714;37.756;2023-03-20T00:04:00;11.55;;;4.57;;
79017;SDS011;68421;44.714;37.756;2023-03-20T00:05:01;10.35;;;4.75;;
79017;SDS011;68421;44.714;37.756;2023-03-20T00:06:03;7.88;;;4.13;;
79017;SDS011;68421;44.714;37.756;2023-03-20T00:07:04;10.95;;;4.38;;
79017;SDS011;68421;44.714;37.756;2023-03-20T00:08:10;8.60;;;4.45;;
79017;SDS011;68421;44.714;37.756;2023-03-20T00:09:12;9.38;;;4.40;;
79017;SDS011;68421;44.714;37.756;2023-03-20T00:10:14;9.63;;;4.28;;
79017;SDS011;68421;44.714;37.756;2023-03-20T00:12:30;9.23;;;4.00;;
79017;SDS011;68421;44.714;37.756;2023-03-20T00:13:31;9.38;;;4.50;;
79017;SDS011;68421;44.714;37.756;2023-03-20T00:14:32;9.70;;;4.57;;
79017;SDS011;68421;44.714;37.756;2023-03-20T00:15:35;9.88;;;4.70;;
79017;SDS011;68421;44.714;37.756;2023-03-20T00:16:39;12.02;;;4.65;;
79017;SDS011;68421;44.714;37.756;2023-03-20T00:17:42;10.20;;;4.45;;
79017;SDS011;68421;44.714;37.756;2023-03-20T00:18:43;9.70;;;4.60;;
79017;SDS011;68421;44.714;37.756;2023-03-20T00:19:45;10.95;;;4.85;;
79017;SDS011;68421;44.714;37.756;2023-03-20T00:20:46;8.85;;;4.63;;
79017;SDS011;68421;44.714;37.756;2023-03-20T00:21:49;10.10;;;4.78;;
79017;SDS011;68421;44.714;37.756;2023-03-20T00:22:52;11.80;;;4.50;;
79017;SDS011;68421;44.714;37.756;2023-03-20T00:23:54;10.00;;;4.90;;
79017;SDS011;68421;44.714;37.756;2023-03-20T00:24:56;10.23;;;4.50;;
79017;SDS011;68421;44.714;37.756;2023-03-20T00:25:57;9.55;;;4.72;;
79017;SDS011;68421;44.714;37.756;2023-03-20T00:26:58;13.15;;;4.75;;
79017;SDS011;68421;44.714;37.756;2023-03-20T00:28:03;10.30;;;4.80;;
79017;SDS011;68421;44.714;37.756;2023-03-20T00:29:32;8.30;;;4.32;;
79017;SDS011;68421;44.714;37.756;2023-03-20T00:30:34;9.95;;;4.65;;
79017;SDS011;68421;44.714;37.756;2023-03-20T00:31:36;9.68;;;4.43;;
79017;SDS011;68421;44.714;37.756;2023-03-20T00:32:39;11.57;;;4.60;;
79017;SDS011;68421;44.714;37.756;2023-03-20T00:33:40;11.60;;;4.95;;
79017;SDS011;68421;44.714;37.756;2023-03-20T00:34:42;12.95;;;4.93;;
79017;SDS011;68421;44.714;37.756;2023-03-20T00:35:44;11.75;;;4.75;;
79017;SDS011;68421;44.714;37.756;2023-03-20T00:36:48;12.98;;;4.82;;
79017;SDS011;68421;44.714;37.756;2023-03-20T00:37:50;9.88;;;4.93;;
79017;SDS011;68421;44.714;37.756;2023-03-20T00:38:52;11.10;;;5.10;;
79017;SDS011;68421;44.714;37.756;2023-03-20T00:39:54;10.35;;;5.07;;
79017;SDS011;68421;44.714;37.756;2023-03-20T00:40:55;9.45;;;4.82;;
79017;SDS011;68421;44.714;37.756;2023-03-20T00:41:57;11.50;;;5.20;;
79017;SDS011;68421;44.714;37.756;2023-03-20T00:43:02;9.90;;;4.60;;
79017;SDS011;68421;44.714;37.756;2023-03-20T00:44:08;12.18;;;4.78;;
79017;SDS011;68421;44.714;37.756;2023-03-20T00:45:28;10.20;;;4.72;;
79017;SDS011;68421;44.714;37.756;2023-03-20T00:46:32;9.95;;;4.97;;
79017;SDS011;68421;44.714;37.756;2023-03-20T00:47:39;11.55;;;4.93;;
79017;SDS011;68421;44.714;37.756;2023-03-20T00:48:41;11.88;;;5.07;;
79017;SDS011;68421;44.714;37.756;2023-03-20T00:49:43;10.63;;;4.82;;
79017;SDS011;68421;44.714;37.756;2023-03-20T00:50:50;11.07;;;4.78;;
79017;SDS011;68421;44.714;37.756;2023-03-20T00:51:52;9.73;;;5.00;;
79017;SDS011;68421;44.714;37.756;2023-03-20T00:52:54;10.50;;;4.88;;
79017;SDS011;68421;44.714;37.756;2023-03-20T00:53:57;10.60;;;4.30;;
79017;SDS011;68421;44.714;37.756;2023-03-20T00:54:58;12.45;;;5.10;;
79017;SDS011;68421;44.714;37.756;2023-03-20T00:56:00;10.93;;;5.07;;
79017;SDS011;68421;44.714;37.756;2023-03-20T00:57:07;10.70;;;4.80;;
79017;SDS011;68421;44.714;37.756;2023-03-20T00:58:14;9.88;;;5.20;;
79017;SDS011;68421;44.714;37.756;2023-03-20T00:59:16;11.00;;;5.22;;
79017;SDS011;68421;44.714;37.756;2023-03-20T01:00:22;10.30;;;4.82;;
79017;SDS011;68421;44.714;37.756;2023-03-20T01:01:30;9.82;;;5.03;;
79017;SDS011;68421;44.714;37.756;2023-03-20T01:02:32;10.93;;;5.13;;
79017;SDS011;68421;44.714;37.756;2023-03-20T01:03:33;10.50;;;4.68;;
79017;SDS011;68421;44.714;37.756;2023-03-20T01:04:36;10.85;;;5.25;;
79017;SDS011;68421;44.714;37.756;2023-03-20T01:05:39;10.02;;;4.80;;
79017;SDS011;68421;44.714;37.756;2023-03-20T01:06:40;9.48;;;4.93;;
79017;SDS011;68421;44.714;37.756;2023-03-20T01:07:42;9.57;;;5.05;;
79017;SDS011;68421;44.714;37.756;2023-03-20T01:08:45;9.98;;;4.82;;
79017;SDS011;68421;44.714;37.756;2023-03-20T01:09:48;10.13;;;4.72;;
79017;SDS011;68421;44.714;37.756;2023-03-20T01:10:52;9.95;;;4.90;;
79017;SDS011;68421;44.714;37.756;2023-03-20T01:11:57;11.85;;;5.05;;
79017;SDS011;68421;44.714;37.756;2023-03-20T01:13:00;11.48;;;5.05;;
79017;SDS011;68421;44.714;37.756;2023-03-20T01:14:02;9.57;;;4.78;;
79017;SDS011;68421;44.714;37.756;2023-03-20T01:15:05;10.52;;;4.97;;
79017;SDS011;68421;44.714;37.756;2023-03-20T01:16:20;10.48;;;5.10;;
79017;SDS011;68421;44.714;37.756;2023-03-20T01:17:25;8.82;;;4.75;;
79017;SDS011;68421;44.714;37.756;2023-03-20T01:18:29;11.45;;;5.35;;
79017;SDS011;68421;44.714;37.756;2023-03-20T01:19:31;10.60;;;5.10;;
79017;SDS011;68421;44.714;37.756;2023-03-20T01:20:32;10.73;;;4.75;;
79017;SDS011;68421;44.714;37.756;2023-03-20T01:21:33;10.52;;;4.90;;
79017;SDS011;68421;44.714;37.756;2023-03-20T01:22:35;10.20;;;4.80;;
79017;SDS011;68421;44.714;37.756;2023-03-20T01:23:36;11.07;;;5.22;;
79017;SDS011;68421;44.714;37.756;2023-03-20T01:24:37;12.35;;;4.65;;
79017;SDS011;68421;44.714;37.756;2023-03-20T01:25:39;12.68;;;5.10;;
79017;SDS011;68421;44.714;37.756;2023-03-20T01:26:41;9.25;;;4.90;;
79017;SDS011;68421;44.714;37.756;2023-03-20T01:27:45;9.57;;;5.05;;
79017;SDS011;68421;44.714;37.756;2023-03-20T01:28:51;11.63;;;5.10;;
79017;SDS011;68421;44.714;37.756;2023-03-20T01:29:53;10.77;;;5.30;;
79017;SDS011;68421;44.714;37.756;2023-03-20T01:30:55;10.82;;;5.00;;
79017;SDS011;68421;44.714;37.756;2023-03-20T01:31:56;10.98;;;4.97;;
79017;SDS011;68421;44.714;37.756;2023-03-20T01:33:00;12.70;;;5.20;;
79017;SDS011;68421;44.714;37.756;2023-03-20T01:34:08;11.45;;;5.47;;
79017;SDS011;68421;44.714;37.756;2023-03-20T01:35:12;10.02;;;5.03;;
79017;SDS011;68421;44.714;37.756;2023-03-20T01:36:16;9.73;;;5.03;;
79017;SDS011;68421;44.714;37.756;2023-03-20T01:37:25;10.43;;;4.93;;
79017;SDS011;68421;44.714;37.756;2023-03-20T01:38:28;11.32;;;4.65;;
79017;SDS011;68421;44.714;37.756;2023-03-20T01:39:33;10.52;;;4.95;;
79017;SDS011;68421;44.714;37.756;2023-03-20T01:41:39;10.15;;;4.90;;
79017;SDS011;68421;44.714;37.756;2023-03-20T01:42:41;10.68;;;5.00;;
79017;SDS011;68421;44.714;37.756;2023-03-20T01:43:43;10.00;;;5.18;;
79017;SDS011;68421;44.714;37.756;2023-03-20T01:44:47;10.70;;;5.00;;
79017;SDS011;68421;44.714;37.756;2023-03-20T01:47:17;10.02;;;4.80;;
79017;SDS011;68421;44.714;37.756;2023-03-20T01:48:20;9.25;;;4.75;;
79017;SDS011;68421;44.714;37.756;2023-03-20T01:50:30;14.48;;;5.32;;
79017;SDS011;68421;44.714;37.756;2023-03-20T01:51:47;10.98;;;5.30;;
79017;SDS011;68421;44.714;37.756;2023-03-20T01:52:50;9.63;;;4.70;;
79017;SDS011;68421;44.714;37.756;2023-03-20T01:54:41;11.52;;;5.07;;
79017;SDS011;68421;44.714;37.756;2023-03-20T01:55:32;11.00;;;4.63;;
79017;SDS011;68421;44.714;37.756;2023-03-20T01:56:36;12.77;;;5.03;;
79017;SDS011;68421;44.714;37.756;2023-03-20T01:57:41;12.52;;;4.90;;
79017;SDS011;68421;44.714;37.756;2023-03-20T01:58:48;10.73;;;5.05;;
79017;SDS011;68421;44.714;37.756;2023-03-20T02:00:01;12.57;;;5.22;;
79017;SDS011;68421;44.714;37.756;2023-03-20T02:01:15;10.15;;;4.93;;
79017;SDS011;68421;44.714;37.756;2023-03-20T02:02:23;14.10;;;4.78;;
79017;SDS011;68421;44.714;37.756;2023-03-20T02:03:28;9.93;;;4.88;;
79017;SDS011;68421;44.714;37.756;2023-03-20T02:04:33;9.88;;;5.07;;
79017;SDS011;68421;44.714;37.756;2023-03-20T02:05:43;9.43;;;4.93;;
79017;SDS011;68421;44.714;37.756;2023-03-20T02:06:45;10.85;;;5.35;;
79017;SDS011;68421;44.714;37.756;2023-03-20T02:07:58;11.50;;;4.95;;
79017;SDS011;68421;44.714;37.756;2023-03-20T02:09:11;12.73;;;5.10;;
79017;SDS011;68421;44.714;37.756;2023-03-20T02:10:16;10.93;;;4.78;;
79017;SDS011;68421;44.714;37.756;2023-03-20T02:11:48;10.52;;;4.75;;
79017;SDS011;68421;44.714;37.756;2023-03-20T02:12:53;9.82;;;4.97;;
79017;SDS011;68421;44.714;37.756;2023-03-20T02:14:05;10.80;;;4.85;;
79017;SDS011;68421;44.714;37.756;2023-03-20T02:15:24;11.32;;;4.93;;
79017;SDS011;68421;44.714;37.756;2023-03-20T02:16:47;10.90;;;5.00;;
79017;SDS011;68421;44.714;37.756;2023-03-20T02:17:54;9.05;;;4.90;;
79017;SDS011;68421;44.714;37.756;2023-03-20T02:18:56;10.40;;;4.95;;
79017;SDS011;68421;44.714;37.756;2023-03-20T02:21:10;10.10;;;5.05;;
79017;SDS011;68421;44.714;37.756;2023-03-20T02:24:15;11.07;;;5.15;;
79017;SDS011;68421;44.714;37.756;2023-03-20T02:30:04;12.18;;;5.13;;
79017;SDS011;68421;44.714;37.756;2023-03-20T02:33:01;11.27;;;5.00;;
79017;SDS011;68421;44.714;37.756;2023-03-20T02:40:29;8.88;;;4.65;;
79017;SDS011;68421;44.714;37.756;2023-03-20T02:44:45;10.27;;;4.57;;
79017;SDS011;68421;44.714;37.756;2023-03-20T02:45:28;13.00;;;4.82;;
79017;SDS011;68421;44.714;37.756;2023-03-20T02:47:04;12.40;;;5.13;;
79017;SDS011;68421;44.714;37.756;2023-03-20T02:52:50;11.48;;;4.80;;
79017;SDS011;68421;44.714;37.756;2023-03-20T02:54:13;12.68;;;4.72;;
79017;SDS011;68421;44.714;37.756;2023-03-20T02:56:35;11.95;;;4.70;;
79017;SDS011;68421;44.714;37.756;2023-03-20T03:00:53;9.73;;;5.00;;
79017;SDS011;68421;44.714;37.756;2023-03-20T03:01:58;10.63;;;4.47;;
79017;SDS011;68421;44.714;37.756;2023-03-20T03:04:19;11.00;;;5.00;;
79017;SDS011;68421;44.714;37.756;2023-03-20T03:05:30;12.52;;;4.70;;
79017;SDS011;68421;44.714;37.756;2023-03-20T03:06:43;11.30;;;5.10;;
79017;SDS011;68421;44.714;37.756;2023-03-20T03:07:47;9.80;;;4.60;;
79017;SDS011;68421;44.714;37.756;2023-03-20T03:08:57;9.48;;;4.50;;
79017;SDS011;68421;44.714;37.756;2023-03-20T03:10:07;10.30;;;5.00;;
79017;SDS011;68421;44.714;37.756;2023-03-20T03:11:15;10.05;;;4.80;;
79017;SDS011;68421;44.714;37.756;2023-03-20T03:12:18;10.88;;;5.05;;
79017;SDS011;68421;44.714;37.756;2023-03-20T03:13:24;10.15;;;4.55;;
79017;SDS011;68421;44.714;37.756;2023-03-20T03:14:36;10.10;;;4.78;;
79017;SDS011;68421;44.714;37.756;2023-03-20T03:15:54;10.65;;;4.90;;
79017;SDS011;68421;44.714;37.756;2023-03-20T03:18:06;9.77;;;4.30;;
79017;SDS011;68421;44.714;37.756;2023-03-20T03:19:15;10.90;;;4.65;;
79017;SDS011;68421;44.714;37.756;2023-03-20T03:20:24;7.97;;;3.63;;
79017;SDS011;68421;44.714;37.756;2023-03-20T03:21:29;7.93;;;3.47;;
79017;SDS011;68421;44.714;37.756;2023-03-20T03:22:32;8.43;;;3.45;;
79017;SDS011;68421;44.714;37.756;2023-03-20T03:23:39;8.55;;;3.45;;
79017;SDS011;68421;44.714;37.756;2023-03-20T03:24:46;8.00;;;3.83;;
79017;SDS011;68421;44.714;37.756;2023-03-20T03:25:50;7.30;;;3.53;;
79017;SDS011;68421;44.714;37.756;2023-03-20T03:26:55;10.00;;;3.92;;
79017;SDS011;68421;44.714;37.756;2023-03-20T03:28:04;11.95;;;4.00;;
79017;SDS011;68421;44.714;37.756;2023-03-20T03:29:15;9.60;;;4.05;;
79017;SDS011;68421;44.714;37.756;2023-03-20T03:30:24;9.70;;;3.97;;
79017;SDS011;68421;44.714;37.756;2023-03-20T03:31:29;8.73;;;3.83;;
79017;SDS011;68421;44.714;37.756;2023-03-20T03:32:34;9.02;;;3.88;;
79017;SDS011;68421;44.714;37.756;2023-03-20T03:33:41;9.57;;;4.32;;
79017;SDS011;68421;44.714;37.756;2023-03-20T03:34:57;10.70;;;4.07;;
79017;SDS011;68421;44.714;37.756;2023-03-20T03:36:46;13.05;;;4.55;;
79017;SDS011;68421;44.714;37.756;2023-03-20T03:40:00;11.52;;;3.90;;
79017;SDS011;68421;44.714;37.756;2023-03-20T03:42:30;7.63;;;3.90;;
79017;SDS011;68421;44.714;37.756;2023-03-20T03:44:55;8.13;;;4.05;;
79017;SDS011;68421;44.714;37.756;2023-03-20T03:46:13;8.13;;;4.50;;
79017;SDS011;68421;44.714;37.756;2023-03-20T03:47:23;9.38;;;4.07;;
79017;SDS011;68421;44.714;37.756;2023-03-20T03:48:44;13.10;;;4.45;;
79017;SDS011;68421;44.714;37.756;2023-03-20T03:49:52;11.90;;;4.70;;
79017;SDS011;68421;44.714;37.756;2023-03-20T03:50:59;10.88;;;4.18;;
79017;SDS011;68421;44.714;37.756;2023-03-20T03:52:08;10.93;;;4.15;;
79017;SDS011;68421;44.714;37.756;2023-03-20T03:53:14;12.98;;;4.18;;
79017;SDS011;68421;44.714;37.756;2023-03-20T03:54:21;9.00;;;4.07;;
79017;SDS011;68421;44.714;37.756;2023-03-20T03:56:09;11.07;;;4.22;;
79017;SDS011;68421;44.714;37.756;2023-03-20T03:57:13;11.98;;;4.95;;
79017;SDS011;68421;44.714;37.756;2023-03-20T03:58:20;13.05;;;4.72;;
79017;SDS011;68421;44.714;37.756;2023-03-20T03:59:45;11.77;;;4.50;;
79017;SDS011;68421;44.714;37.756;2023-03-20T04:00:49;9.85;;;3.97;;
79017;SDS011;68421;44.714;37.756;2023-03-20T04:01:54;10.68;;;3.92;;
79017;SDS011;68421;44.714;37.756;2023-03-20T04:02:57;9.52;;;3.95;;
79017;SDS011;68421;44.714;37.756;2023-03-20T04:03:58;11.60;;;4.35;;
79017;SDS011;68421;44.714;37.756;2023-03-20T04:05:03;19.20;;;5.68;;
79017;SDS011;68421;44.714;37.756;2023-03-20T04:06:07;20.90;;;6.78;;
79017;SDS011;68421;44.714;37.756;2023-03-20T04:07:13;33.50;;;8.07;;
79017;SDS011;68421;44.714;37.756;2023-03-20T04:08:15;35.67;;;8.95;;
79017;SDS011;68421;44.714;37.756;2023-03-20T04:09:16;43.10;;;10.40;;
79017;SDS011;68421;44.714;37.756;2023-03-20T04:10:18;40.83;;;10.60;;
79017;SDS011;68421;44.714;37.756;2023-03-20T04:11:20;42.28;;;10.57;;
79017;SDS011;68421;44.714;37.756;2023-03-20T04:12:42;39.42;;;10.20;;
79017;SDS011;68421;44.714;37.756;2023-03-20T04:13:47;52.35;;;14.57;;
79017;SDS011;68421;44.714;37.756;2023-03-20T04:14:50;47.25;;;11.65;;
79017;SDS011;68421;44.714;37.756;2023-03-20T04:15:55;52.60;;;12.75;;
79017;SDS011;68421;44.714;37.756;2023-03-20T04:16:59;63.55;;;15.00;;
79017;SDS011;68421;44.714;37.756;2023-03-20T04:18:01;57.38;;;14.38;;
79017;SDS011;68421;44.714;37.756;2023-03-20T04:19:03;56.80;;;13.25;;
79017;SDS011;68421;44.714;37.756;2023-03-20T04:20:05;48.97;;;13.02;;
79017;SDS011;68421;44.714;37.756;2023-03-20T04:21:07;48.47;;;13.60;;
79017;SDS011;68421;44.714;37.756;2023-03-20T04:22:09;49.97;;;13.20;;
79017;SDS011;68421;44.714;37.756;2023-03-20T04:23:11;51.58;;;12.77;;
79017;SDS011;68421;44.714;37.756;2023-03-20T04:24:12;44.95;;;11.95;;
79017;SDS011;68421;44.714;37.756;2023-03-20T04:25:19;45.95;;;11.95;;
79017;SDS011;68421;44.714;37.756;2023-03-20T04:26:24;51.97;;;12.70;;
79017;SDS011;68421;44.714;37.756;2023-03-20T04:27:26;49.90;;;12.68;;
79017;SDS011;68421;44.714;37.756;2023-03-20T04:28:28;54.10;;;12.50;;
79017;SDS011;68421;44.714;37.756;2023-03-20T04:29:44;49.72;;;12.90;;
79017;SDS011;68421;44.714;37.756;2023-03-20T04:31:12;46.97;;;11.85;;
79017;SDS011;68421;44.714;37.756;2023-03-20T04:32:33;50.78;;;12.45;;
79017;SDS011;68421;44.714;37.756;2023-03-20T04:33:47;44.10;;;11.52;;
79017;SDS011;68421;44.714;37.756;2023-03-20T04:35:08;46.13;;;12.88;;
79017;SDS011;68421;44.714;37.756;2023-03-20T04:36:25;42.47;;;11.80;;
79017;SDS011;68421;44.714;37.756;2023-03-20T04:37:27;45.40;;;12.38;;
79017;SDS011;68421;44.714;37.756;2023-03-20T04:38:37;42.38;;;12.40;;
79017;SDS011;68421;44.714;37.756;2023-03-20T04:39:39;44.72;;;12.93;;
79017;SDS011;68421;44.714;37.756;2023-03-20T04:41:43;38.50;;;11.93;;
79017;SDS011;68421;44.714;37.756;2023-03-20T04:42:45;43.67;;;11.98;;
79017;SDS011;68421;44.714;37.756;2023-03-20T04:43:47;44.45;;;12.43;;
79017;SDS011;68421;44.714;37.756;2023-03-20T04:44:48;42.53;;;11.48;;
79017;SDS011;68421;44.714;37.756;2023-03-20T04:45:50;40.15;;;11.20;;
79017;SDS011;68421;44.714;37.756;2023-03-20T04:46:51;37.13;;;11.27;;
79017;SDS011;68421;44.714;37.756;2023-03-20T04:47:53;39.40;;;11.68;;
79017;SDS011;68421;44.714;37.756;2023-03-20T04:48:56;39.47;;;11.25;;
79017;SDS011;68421;44.714;37.756;2023-03-20T04:50:01;34.45;;;10.43;;
79017;SDS011;68421;44.714;37.756;2023-03-20T04:51:04;36.80;;;11.25;;
79017;SDS011;68421;44.714;37.756;2023-03-20T04:52:37;37.47;;;10.88;;
79017;SDS011;68421;44.714;37.756;2023-03-20T04:53:40;35.75;;;10.77;;
79017;SDS011;68421;44.714;37.756;2023-03-20T04:54:44;35.97;;;10.73;;
79017;SDS011;68421;44.714;37.756;2023-03-20T04:55:46;34.95;;;11.40;;
79017;SDS011;68421;44.714;37.756;2023-03-20T04:56:48;41.17;;;10.73;;
79017;SDS011;68421;44.714;37.756;2023-03-20T04:57:52;34.78;;;9.90;;
79017;SDS011;68421;44.714;37.756;2023-03-20T04:58:53;30.70;;;10.07;;
79017;SDS011;68421;44.714;37.756;2023-03-20T04:59:56;35.40;;;10.05;;
79017;SDS011;68421;44.714;37.756;2023-03-20T05:00:57;30.52;;;10.25;;
79017;SDS011;68421;44.714;37.756;2023-03-20T05:01:58;29.60;;;9.18;;
79017;SDS011;68421;44.714;37.756;2023-03-20T05:03:00;30.20;;;9.70;;
79017;SDS011;68421;44.714;37.756;2023-03-20T05:04:01;31.73;;;10.43;;
79017;SDS011;68421;44.714;37.756;2023-03-20T05:05:06;36.15;;;9.77;;
79017;SDS011;68421;44.714;37.756;2023-03-20T05:06:09;32.30;;;9.85;;
79017;SDS011;68421;44.714;37.756;2023-03-20T05:07:14;28.85;;;9.35;;
79017;SDS011;68421;44.714;37.756;2023-03-20T05:08:41;29.98;;;9.10;;
79017;SDS011;68421;44.714;37.756;2023-03-20T05:09:43;28.38;;;9.40;;
79017;SDS011;68421;44.714;37.756;2023-03-20T05:10:44;28.67;;;9.55;;
79017;SDS011;68421;44.714;37.756;2023-03-20T05:12:20;30.90;;;9.43;;
79017;SDS011;68421;44.714;37.756;2023-03-20T05:13:54;26.50;;;8.77;;
79017;SDS011;68421;44.714;37.756;2023-03-20T05:14:58;27.42;;;9.20;;
79017;SDS011;68421;44.714;37.756;2023-03-20T05:16:06;27.85;;;9.05;;
79017;SDS011;68421;44.714;37.756;2023-03-20T05:17:24;24.75;;;8.88;;
79017;SDS011;68421;44.714;37.756;2023-03-20T05:18:44;28.88;;;8.20;;
79017;SDS011;68421;44.714;37.756;2023-03-20T05:20:08;26.88;;;8.85;;
79017;SDS011;68421;44.714;37.756;2023-03-20T05:21:29;27.23;;;8.77;;
79017;SDS011;68421;44.714;37.756;2023-03-20T05:22:59;22.23;;;7.55;;
79017;SDS011;68421;44.714;37.756;2023-03-20T05:24:19;23.30;;;8.13;;
79017;SDS011;68421;44.714;37.756;2023-03-20T05:25:41;24.88;;;8.20;;
79017;SDS011;68421;44.714;37.756;2023-03-20T05:26:59;24.48;;;8.02;;
79017;SDS011;68421;44.714;37.756;2023-03-20T05:28:09;26.20;;;8.32;;
79017;SDS011;68421;44.714;37.756;2023-03-20T05:30:45;19.83;;;7.38;;
79017;SDS011;68421;44.714;37.756;2023-03-20T05:31:49;22.38;;;7.72;;
79017;SDS011;68421;44.714;37.756;2023-03-20T05:33:15;22.33;;;7.30;;
79017;SDS011;68421;44.714;37.756;2023-03-20T05:34:39;20.98;;;7.18;;
79017;SDS011;68421;44.714;37.756;2023-03-20T05:35:50;19.70;;;7.70;;
79017;SDS011;68421;44.714;37.756;2023-03-20T05:37:08;23.10;;;7.47;;
79017;SDS011;68421;44.714;37.756;2023-03-20T05:38:35;23.65;;;7.30;;
79017;SDS011;68421;44.714;37.756;2023-03-20T05:39:55;19.60;;;7.50;;
79017;SDS011;68421;44.714;37.756;2023-03-20T05:41:15;22.27;;;7.30;;
79017;SDS011;68421;44.714;37.756;2023-03-20T05:42:33;19.60;;;7.18;;
79017;SDS011;68421;44.714;37.756;2023-03-20T05:43:53;21.80;;;7.43;;
79017;SDS011;68421;44.714;37.756;2023-03-20T05:45:27;20.90;;;7.10;;
79017;SDS011;68421;44.714;37.756;2023-03-20T05:46:44;19.40;;;6.97;;
79017;SDS011;68421;44.714;37.756;2023-03-20T05:47:55;19.67;;;6.85;;
79017;SDS011;68421;44.714;37.756;2023-03-20T05:49:19;16.83;;;6.88;;
79017;SDS011;68421;44.714;37.756;2023-03-20T05:50:39;17.90;;;6.63;;
79017;SDS011;68421;44.714;37.756;2023-03-20T05:51:48;17.95;;;6.50;;
79017;SDS011;68421;44.714;37.756;2023-03-20T05:53:12;20.15;;;6.95;;
79017;SDS011;68421;44.714;37.756;2023-03-20T05:54:46;17.55;;;6.78;;
79017;SDS011;68421;44.714;37.756;2023-03-20T05:55:58;20.60;;;7.03;;
79017;SDS011;68421;44.714;37.756;2023-03-20T05:57:15;20.05;;;6.63;;
79017;SDS011;68421;44.714;37.756;2023-03-20T05:58:25;18.50;;;6.90;;
79017;SDS011;68421;44.714;37.756;2023-03-20T05:59:29;18.85;;;6.68;;
79017;SDS011;68421;44.714;37.756;2023-03-20T06:00:57;18.98;;;6.93;;
79017;SDS011;68421;44.714;37.756;2023-03-20T06:02:20;14.85;;;5.93;;
79017;SDS011;68421;44.714;37.756;2023-03-20T06:03:33;16.95;;;6.07;;
79017;SDS011;68421;44.714;37.756;2023-03-20T06:04:41;15.70;;;6.03;;
79017;SDS011;68421;44.714;37.756;2023-03-20T06:05:53;17.40;;;6.50;;
79017;SDS011;68421;44.714;37.756;2023-03-20T06:06:55;16.08;;;6.38;;
79017;SDS011;68421;44.714;37.756;2023-03-20T06:07:56;17.27;;;6.60;;
79017;SDS011;68421;44.714;37.756;2023-03-20T06:08:58;16.13;;;5.75;;
79017;SDS011;68421;44.714;37.756;2023-03-20T06:10:02;13.43;;;6.35;;
79017;SDS011;68421;44.714;37.756;2023-03-20T06:11:04;16.58;;;6.07;;
79017;SDS011;68421;44.714;37.756;2023-03-20T06:12:09;14.18;;;6.35;;
79017;SDS011;68421;44.714;37.756;2023-03-20T06:13:11;17.05;;;6.43;;
79017;SDS011;68421;44.714;37.756;2023-03-20T06:14:13;15.50;;;6.05;;
79017;SDS011;68421;44.714;37.756;2023-03-20T06:15:17;15.02;;;6.13;;
79017;SDS011;68421;44.714;37.756;2023-03-20T06:16:25;16.15;;;6.10;;
79017;SDS011;68421;44.714;37.756;2023-03-20T06:17:27;15.85;;;5.55;;
79017;SDS011;68421;44.714;37.756;2023-03-20T06:18:35;11.85;;;5.47;;
79017;SDS011;68421;44.714;37.756;2023-03-20T06:19:39;13.15;;;5.78;;
79017;SDS011;68421;44.714;37.756;2023-03-20T06:20:40;15.30;;;6.10;;
79017;SDS011;68421;44.714;37.756;2023-03-20T06:21:42;15.27;;;5.55;;
79017;SDS011;68421;44.714;37.756;2023-03-20T06:22:48;14.48;;;5.65;;
79017;SDS011;68421;44.714;37.756;2023-03-20T06:23:50;15.77;;;5.55;;
79017;SDS011;68421;44.714;37.756;2023-03-20T06:24:52;15.48;;;5.55;;
79017;SDS011;68421;44.714;37.756;2023-03-20T06:25:54;16.55;;;5.65;;
79017;SDS011;68421;44.714;37.756;2023-03-20T06:26:56;14.05;;;5.47;;
79017;SDS011;68421;44.714;37.756;2023-03-20T06:27:58;14.80;;;5.20;;
79017;SDS011;68421;44.714;37.756;2023-03-20T06:29:00;14.05;;;5.80;;
79017;SDS011;68421;44.714;37.756;2023-03-20T06:30:02;14.50;;;5.53;;
79017;SDS011;68421;44.714;37.756;2023-03-20T06:31:07;13.07;;;5.40;;
79017;SDS011;68421;44.714;37.756;2023-03-20T06:32:09;16.80;;;5.75;;
79017;SDS011;68421;44.714;37.756;2023-03-20T06:33:12;12.93;;;5.20;;
79017;SDS011;68421;44.714;37.756;2023-03-20T06:34:30;14.73;;;5.22;;
79017;SDS011;68421;44.714;37.756;2023-03-20T06:35:32;13.90;;;4.82;;
79017;SDS011;68421;44.714;37.756;2023-03-20T06:36:33;14.68;;;5.32;;
79017;SDS011;68421;44.714;37.756;2023-03-20T06:37:40;16.88;;;5.60;;
79017;SDS011;68421;44.714;37.756;2023-03-20T06:38:47;13.35;;;5.32;;
79017;SDS011;68421;44.714;37.756;2023-03-20T06:39:50;13.00;;;5.30;;
79017;SDS011;68421;44.714;37.756;2023-03-20T06:40:52;15.88;;;5.22;;
79017;SDS011;68421;44.714;37.756;2023-03-20T06:41:54;12.95;;;4.78;;
79017;SDS011;68421;44.714;37.756;2023-03-20T06:42:58;14.52;;;4.90;;
79017;SDS011;68421;44.714;37.756;2023-03-20T06:44:08;11.82;;;4.90;;
79017;SDS011;68421;44.714;37.756;2023-03-20T06:45:28;11.85;;;4.55;;
79017;SDS011;68421;44.714;37.756;2023-03-20T06:46:33;14.55;;;4.80;;
79017;SDS011;68421;44.714;37.756;2023-03-20T06:47:34;10.60;;;4.65;;
79017;SDS011;68421;44.714;37.756;2023-03-20T06:48:36;13.95;;;5.25;;
79017;SDS011;68421;44.714;37.756;2023-03-20T06:49:40;12.00;;;4.40;;
79017;SDS011;68421;44.714;37.756;2023-03-20T06:50:42;13.85;;;5.13;;
79017;SDS011;68421;44.714;37.756;2023-03-20T06:51:44;12.15;;;4.80;;
79017;SDS011;68421;44.714;37.756;2023-03-20T06:52:50;10.52;;;4.85;;
79017;SDS011;68421;44.714;37.756;2023-03-20T06:54:30;12.35;;;4.90;;
79017;SDS011;68421;44.714;37.756;2023-03-20T06:55:32;12.15;;;4.30;;
79017;SDS011;68421;44.714;37.756;2023-03-20T06:56:34;13.73;;;4.40;;
79017;SDS011;68421;44.714;37.756;2023-03-20T06:57:35;11.70;;;4.70;;
79017;SDS011;68421;44.714;37.756;2023-03-20T06:58:37;12.05;;;4.80;;
79017;SDS011;68421;44.714;37.756;2023-03-20T06:59:39;10.63;;;4.65;;
79017;SDS011;68421;44.714;37.756;2023-03-20T07:00:40;10.52;;;4.20;;
79017;SDS011;68421;44.714;37.756;2023-03-20T07:01:42;11.50;;;4.50;;
79017;SDS011;68421;44.714;37.756;2023-03-20T07:02:44;12.48;;;4.82;;
79017;SDS011;68421;44.714;37.756;2023-03-20T07:03:48;13.43;;;4.55;;
79017;SDS011;68421;44.714;37.756;2023-03-20T07:04:55;11.70;;;4.15;;
79017;SDS011;68421;44.714;37.756;2023-03-20T07:06:00;10.82;;;4.20;;
79017;SDS011;68421;44.714;37.756;2023-03-20T07:07:02;11.85;;;4.22;;
79017;SDS011;68421;44.714;37.756;2023-03-20T07:08:04;10.48;;;4.28;;
79017;SDS011;68421;44.714;37.756;2023-03-20T07:09:07;10.38;;;4.10;;
79017;SDS011;68421;44.714;37.756;2023-03-20T07:10:08;9.70;;;3.85;;
79017;SDS011;68421;44.714;37.756;2023-03-20T07:11:12;11.77;;;3.92;;
79017;SDS011;68421;44.714;37.756;2023-03-20T07:12:15;9.10;;;3.90;;
79017;SDS011;68421;44.714;37.756;2023-03-20T07:13:20;10.18;;;3.67;;
79017;SDS011;68421;44.714;37.756;2023-03-20T07:14:22;13.15;;;4.20;;
79017;SDS011;68421;44.714;37.756;2023-03-20T07:15:30;11.77;;;3.95;;
79017;SDS011;68421;44.714;37.756;2023-03-20T07:16:32;11.00;;;4.10;;
79017;SDS011;68421;44.714;37.756;2023-03-20T07:17:34;12.57;;;4.32;;